Archiv-/Tagesdaten

--Timestamp---	Temp	Chill	HIndex	Humid	Dewpt	Wind	HiWind	WindDir	Rain	Barom	        Solar	ET	UV
--------------	----	-----	------	-----	-----	----	------	-------	----	-----	        -----	--	--
20090128 00:05	-2.2	-4.7	-2.2	86	-4.2	6	10	292	0.00	1016.156	0	0.000	0
20090128 00:10	-2.2	-5.3	-2.2	85	-4.3	8	14	292	0.00	1016.326	0	0.000	0
20090128 00:15	-2.2	-2.2	-2.2	85	-4.3	5	8	270	0.00	1016.258	0	0.000	0
20090128 00:20	-2.1	-2.1	-2.1	85	-4.3	3	10	315	0.00	1016.326	0	0.000	0
20090128 00:25	-2.1	-2.1	-2.1	85	-4.3	0	3	315	0.00	1016.427	0	0.000	0
20090128 00:30	-2.1	-2.1	-2.1	85	-4.2	2	6	315	0.00	1016.461	0	0.000	0
20090128 00:35	-2.1	-2.1	-2.1	84	-4.4	5	8	292	0.00	1016.224	0	0.000	0
20090128 00:40	-2.1	-2.1	-2.1	84	-4.4	2	6	292	0.00	1016.292	0	0.000	0
20090128 00:45	-2.1	-2.1	-2.1	84	-4.4	3	5	292	0.00	1016.224	0	0.000	0
20090128 00:50	-2.1	-2.1	-2.1	84	-4.4	3	8	270	0.00	1016.156	0	0.000	0
20090128 00:55	-2.2	-2.2	-2.2	84	-4.5	5	8	270	0.00	1016.190	0	0.000	0
20090128 01:00	-2.2	-2.2	-2.2	85	-4.3	5	6	270	0.00	1016.156	0	0.000	0
20090128 01:05	-2.2	-2.2	-2.2	85	-4.4	5	11	270	0.00	1016.089	0	0.000	0
20090128 01:10	-2.2	-2.2	-2.2	84	-4.6	5	10	270	0.00	1016.156	0	0.000	0
20090128 01:15	-2.2	-2.2	-2.2	85	-4.4	2	6	247	0.00	1016.360	0	0.000	0
20090128 01:20	-2.2	-2.2	-2.2	85	-4.4	2	5	270	0.00	1016.360	0	0.000	0
20090128 01:25	-2.2	-2.2	-2.2	85	-4.4	0	3	270	0.00	1016.292	0	0.000	0
20090128 01:30	-2.2	-2.2	-2.2	85	-4.3	3	6	270	0.00	1016.224	0	0.000	0
20090128 01:35	-2.2	-2.2	-2.2	85	-4.4	2	5	270	0.00	1016.224	0	0.000	0
20090128 01:40	-2.2	-2.2	-2.2	85	-4.3	2	5	270	0.00	1016.326	0	0.000	0
20090128 01:45	-2.2	-2.2	-2.2	85	-4.3	2	5	180	0.00	1016.461	0	0.000	0
20090128 01:50	-2.2	-2.2	-2.2	85	-4.3	2	6	270	0.00	1016.326	0	0.000	0
20090128 01:55	-2.2	-2.2	-2.2	85	-4.3	3	6	270	0.00	1016.258	0	0.000	0
20090128 02:00	-2.2	-2.2	-2.2	85	-4.3	2	6	270	0.00	1016.360	0	0.000	0
20090128 02:05	-2.1	-2.1	-2.1	84	-4.4	3	8	270	0.00	1016.123	0	0.000	0
20090128 02:10	-2.1	-2.1	-2.1	84	-4.4	3	6	247	0.00	1016.224	0	0.000	0
20090128 02:15	-2.1	-2.1	-2.1	84	-4.4	3	5	247	0.00	1016.224	0	0.000	0
20090128 02:20	-2.1	-2.1	-2.1	84	-4.4	3	8	247	0.00	1016.190	0	0.000	0
20090128 02:25	-2.1	-2.1	-2.1	84	-4.4	3	6	247	0.00	1016.360	0	0.000	0
20090128 02:30	-2.1	-2.1	-2.1	84	-4.4	2	6	247	0.00	1016.360	0	0.000	0
20090128 02:35	-2.1	-2.1	-2.1	84	-4.4	3	8	292	0.00	1016.258	0	0.000	0
20090128 02:40	-2.1	-2.1	-2.1	84	-4.4	3	6	292	0.00	1016.258	0	0.000	0
20090128 02:45	-2.1	-2.1	-2.1	84	-4.4	3	6	247	0.00	1016.258	0	0.000	0
20090128 02:50	-2.1	-2.1	-2.1	84	-4.4	3	11	247	0.00	1016.326	0	0.000	0
20090128 02:55	-2.1	-2.1	-2.1	84	-4.4	3	8	247	0.00	1016.224	0	0.000	0
20090128 03:00	-2.1	-2.1	-2.1	84	-4.4	3	10	225	0.00	1016.224	0	0.000	0
20090128 03:05	-2.1	-2.1	-2.1	83	-4.6	3	11	225	0.00	1016.258	0	0.000	0
20090128 03:10	-2.1	-2.1	-2.1	83	-4.6	3	8	225	0.00	1016.326	0	0.000	0
20090128 03:15	-2.1	-2.1	-2.1	83	-4.6	3	10	270	0.00	1016.224	0	0.000	0
20090128 03:20	-2.1	-2.1	-2.1	83	-4.6	3	8	247	0.00	1016.089	0	0.000	0
20090128 03:25	-2.1	-2.1	-2.1	83	-4.6	5	11	247	0.00	1016.055	0	0.000	0
20090128 03:30	-2.1	-2.1	-2.1	83	-4.6	5	13	247	0.00	1016.055	0	0.000	0
20090128 03:35	-2.1	-2.1	-2.1	83	-4.6	5	8	247	0.00	1016.021	0	0.000	0
20090128 03:40	-2.1	-2.1	-2.1	83	-4.5	5	14	247	0.00	1016.055	0	0.000	0
20090128 03:45	-2.1	-2.1	-2.1	83	-4.5	5	11	270	0.00	1016.123	0	0.000	0
20090128 03:50	-2.1	-2.1	-2.1	83	-4.5	3	8	247	0.00	1016.156	0	0.000	0
20090128 03:55	-2.1	-2.1	-2.1	83	-4.5	3	8	247	0.00	1016.156	0	0.000	0
20090128 04:00	-2.1	-2.1	-2.1	82	-4.7	3	11	247	0.00	1016.190	0	0.000	0
20090128 04:05	-2.0	-2.0	-2.0	82	-4.7	5	8	247	0.00	1016.190	0	0.000	0
20090128 04:10	-2.0	-2.0	-2.0	82	-4.7	5	10	225	0.00	1016.224	0	0.000	0
20090128 04:15	-1.9	-1.9	-1.9	82	-4.6	3	8	247	0.00	1016.224	0	0.000	0
20090128 04:20	-1.9	-1.9	-1.9	82	-4.6	3	8	270	0.00	1016.224	0	0.000	0
20090128 04:25	-1.9	-1.9	-1.9	82	-4.6	5	8	270	0.00	1016.224	0	0.000	0
20090128 04:30	-1.9	-1.9	-1.9	82	-4.6	5	11	247	0.00	1016.326	0	0.000	0
20090128 04:35	-1.9	-4.4	-1.9	82	-4.6	6	14	270	0.00	1016.326	0	0.000	0
20090128 04:40	-1.9	-4.4	-1.9	82	-4.6	6	14	270	0.00	1016.326	0	0.000	0
20090128 04:45	-1.9	-5.0	-1.9	83	-4.4	8	14	270	0.00	1016.258	0	0.000	0
20090128 04:50	-2.0	-4.5	-2.0	83	-4.5	6	11	270	0.00	1016.258	0	0.000	0
20090128 04:55	-2.0	-4.5	-2.0	83	-4.5	6	14	270	0.00	1016.258	0	0.000	0
20090128 05:00	-2.1	-5.1	-2.1	83	-4.5	8	18	270	0.00	1016.394	0	0.000	0
20090128 05:05	-2.1	-4.6	-2.1	84	-4.4	6	14	270	0.00	1016.258	0	0.000	0
20090128 05:10	-2.1	-4.6	-2.1	84	-4.4	6	14	270	0.00	1016.326	0	0.000	0
20090128 05:15	-2.1	-4.6	-2.1	85	-4.3	6	18	270	0.00	1016.258	0	0.000	0
20090128 05:20	-2.2	-4.7	-2.2	85	-4.3	6	16	270	0.00	1016.224	0	0.000	0
20090128 05:25	-2.2	-4.7	-2.2	85	-4.4	6	14	270	0.00	1016.224	0	0.000	0
20090128 05:30	-2.2	-2.2	-2.2	85	-4.4	5	10	292	0.00	1016.292	0	0.000	0
20090128 05:35	-2.2	-4.7	-2.2	85	-4.4	6	11	270	0.00	1016.360	0	0.000	0
20090128 05:40	-2.2	-2.2	-2.2	85	-4.3	5	8	270	0.00	1016.360	0	0.000	0
20090128 05:45	-2.2	-4.7	-2.2	85	-4.3	6	11	270	0.00	1016.461	0	0.000	0
20090128 05:50	-2.2	-4.7	-2.2	84	-4.5	6	11	270	0.00	1016.495	0	0.000	0
20090128 05:55	-2.2	-2.2	-2.2	85	-4.3	5	10	270	0.00	1016.529	0	0.000	0
20090128 06:00	-2.2	-2.2	-2.2	85	-4.3	5	8	292	0.00	1016.495	0	0.000	0
20090128 06:05	-2.2	-2.2	-2.2	85	-4.3	5	8	270	0.00	1016.529	0	0.000	0
20090128 06:10	-2.2	-2.2	-2.2	86	-4.2	5	10	292	0.20	1016.563	0	0.000	0
20090128 06:15	-2.2	-2.2	-2.2	86	-4.2	5	11	270	0.00	1016.597	0	0.000	0
20090128 06:20	-2.3	-4.8	-2.3	86	-4.3	6	10	270	0.00	1016.597	0	0.000	0
20090128 06:25	-2.3	-2.3	-2.3	87	-4.1	5	8	292	0.00	1016.495	0	0.000	0
20090128 06:30	-2.3	-2.3	-2.3	87	-4.2	5	10	247	0.00	1016.461	0	0.000	0
20090128 06:35	-2.4	-4.9	-2.4	87	-4.3	6	10	270	0.00	1016.394	0	0.000	0
20090128 06:40	-2.4	-5.0	-2.4	88	-4.2	6	11	270	0.00	1016.394	0	0.000	0
20090128 06:45	-2.4	-2.4	-2.4	88	-4.2	5	10	270	0.00	1016.427	0	0.000	0
20090128 06:50	-2.5	-2.5	-2.5	88	-4.2	5	8	270	0.20	1016.529	0	0.000	0
20090128 06:55	-2.5	-2.5	-2.5	88	-4.2	5	10	270	0.00	1016.597	0	0.000	0
20090128 07:00	-2.5	-2.5	-2.5	89	-4.1	3	8	292	0.00	1016.597	0	0.000	0
20090128 07:05	-2.5	-2.5	-2.5	89	-4.1	3	6	270	0.00	1016.664	0	0.000	0
20090128 07:10	-2.5	-2.5	-2.5	89	-4.1	2	5	270	0.00	1016.631	0	0.000	0
20090128 07:15	-2.5	-2.5	-2.5	89	-4.1	2	5	270	0.00	1016.664	0	0.000	0
20090128 07:20	-2.6	-2.6	-2.6	89	-4.1	3	6	270	0.00	1016.698	0	0.000	0
20090128 07:25	-2.6	-2.6	-2.6	90	-4.0	2	5	270	0.00	1016.732	0	0.000	0
20090128 07:30	-2.6	-2.6	-2.6	90	-4.0	3	6	270	0.00	1016.732	0	0.000	0
20090128 07:35	-2.6	-2.6	-2.6	90	-4.0	2	6	270	0.00	1016.868	0	0.000	0
20090128 07:40	-2.6	-2.6	-2.6	90	-4.0	2	6	270	0.00	1016.935	0	0.000	0
20090128 07:45	-2.6	-2.6	-2.6	90	-4.0	0	3	270	0.00	1017.071	0	0.000	0
20090128 07:50	-2.6	-2.6	-2.6	90	-4.0	2	5	270	0.20	1017.139	0	0.000	0
20090128 07:55	-2.6	-2.6	-2.6	90	-4.0	0	2	270	0.00	1017.206	0	0.000	0
20090128 08:00	-2.6	-2.6	-2.6	90	-4.0	2	5	270	0.00	1017.240	0	0.000	0
20090128 08:05	-2.6	-2.6	-2.6	90	-4.0	2	3	270	0.00	1017.376	3	0.000	0
20090128 08:10	-2.5	-2.5	-2.5	91	-3.8	2	3	270	0.20	1017.240	5	0.000	0
20090128 08:15	-2.5	-2.5	-2.5	91	-3.8	2	3	270	0.00	1017.274	7	0.000	0
20090128 08:20	-2.5	-2.5	-2.5	91	-3.8	2	3	270	0.00	1017.274	7	0.000	0
20090128 08:25	-2.5	-2.5	-2.5	91	-3.8	2	3	270	0.00	1017.240	7	0.000	0
20090128 08:30	-2.5	-2.5	-2.5	91	-3.8	2	5	270	0.00	1017.376	7	0.000	0
20090128 08:35	-2.5	-2.5	-2.5	91	-3.8	2	3	270	0.00	1017.240	7	0.000	0
20090128 08:40	-2.5	-2.5	-2.5	91	-3.8	2	3	270	0.00	1017.342	7	0.000	0
20090128 08:45	-2.5	-2.5	-2.5	91	-3.8	0	3	270	0.00	1017.409	9	0.000	0
20090128 08:50	-2.5	-2.5	-2.5	91	-3.8	2	3	270	0.00	1017.206	11	0.000	0
20090128 08:55	-2.4	-2.4	-2.4	91	-3.7	2	3	270	0.00	1017.342	11	0.000	0
20090128 09:00	-2.5	-2.5	-2.5	91	-3.8	2	6	270	0.00	1017.308	10	0.000	0
20090128 09:05	-2.4	-2.4	-2.4	91	-3.7	3	5	270	0.00	1017.274	10	0.000	0
20090128 09:10	-2.4	-2.4	-2.4	91	-3.7	2	5	270	0.00	1017.308	11	0.000	0
20090128 09:15	-2.4	-2.4	-2.4	91	-3.7	2	5	270	0.00	1017.376	11	0.000	0
20090128 09:20	-2.4	-2.4	-2.4	91	-3.7	2	5	270	0.00	1017.308	12	0.000	0
20090128 09:25	-2.4	-2.4	-2.4	91	-3.7	2	5	270	0.00	1017.308	12	0.000	0
20090128 09:30	-2.4	-2.4	-2.4	91	-3.7	2	5	270	0.00	1017.240	15	0.000	0
20090128 09:35	-2.3	-2.3	-2.3	91	-3.6	2	5	270	0.00	1017.376	12	0.000	0
20090128 09:40	-2.3	-2.3	-2.3	91	-3.5	0	3	270	0.00	1017.342	14	0.000	0
20090128 09:45	-2.3	-2.3	-2.3	91	-3.5	2	5	270	0.00	1017.274	18	0.000	0
20090128 09:50	-2.2	-2.2	-2.2	91	-3.5	2	3	270	0.00	1017.342	17	0.000	0
20090128 09:55	-2.2	-2.2	-2.2	91	-3.4	0	2	270	0.00	1017.240	17	0.000	0
20090128 10:00	-2.1	-2.1	-2.1	91	-3.4	2	3	270	0.00	1017.274	18	0.000	0
20090128 10:05	-2.1	-2.1	-2.1	91	-3.3	0	3	270	0.00	1017.274	19	0.000	0
20090128 10:10	-2.1	-2.1	-2.1	91	-3.3	2	3	270	0.00	1017.240	21	0.000	0
20090128 10:15	-2.1	-2.1	-2.1	91	-3.3	2	5	270	0.00	1017.240	24	0.000	0
20090128 10:20	-2.0	-2.0	-2.0	91	-3.3	2	5	270	0.00	1017.342	27	0.000	0
20090128 10:25	-1.9	-1.9	-1.9	91	-3.2	2	3	270	0.00	1017.342	29	0.000	0
20090128 10:30	-1.8	-1.8	-1.8	91	-3.1	2	5	270	0.00	1017.342	31	0.000	0
20090128 10:35	-1.8	-1.8	-1.8	91	-3.0	0	3	270	0.00	1017.443	29	0.000	0
20090128 10:40	-1.7	-1.7	-1.7	91	-3.0	2	3	270	0.00	1017.443	27	0.000	0
20090128 10:45	-1.7	-1.7	-1.7	90	-3.1	0	3	270	0.20	1017.477	26	0.000	0
20090128 10:50	-1.6	-1.6	-1.6	90	-3.0	0	2	270	0.00	1017.511	25	0.000	0
20090128 10:55	-1.5	-1.5	-1.5	90	-2.9	2	3	270	0.00	1017.613	29	0.000	0
20090128 11:00	-1.5	-1.5	-1.5	90	-2.9	3	5	270	0.00	1017.613	29	0.000	0
20090128 11:05	-1.5	-1.5	-1.5	90	-2.9	3	5	270	0.00	1017.613	30	0.000	0
20090128 11:10	-1.6	-1.6	-1.6	90	-3.0	3	5	270	0.00	1017.545	32	0.000	0
20090128 11:15	-1.6	-1.6	-1.6	90	-3.0	2	5	270	0.00	1017.613	31	0.000	0
20090128 11:20	-1.6	-1.6	-1.6	90	-3.0	3	5	270	0.00	1017.443	32	0.000	0
20090128 11:25	-1.5	-1.5	-1.5	90	-2.9	0	3	270	0.00	1017.409	34	0.000	0
20090128 11:30	-1.3	-1.3	-1.3	90	-2.8	2	3	270	0.00	1017.409	38	0.000	0
20090128 11:35	-1.3	-1.3	-1.3	90	-2.8	2	3	270	0.00	1017.308	40	0.000	0
20090128 11:40	-1.2	-1.2	-1.2	90	-2.6	0	2	270	0.00	1017.342	53	0.000	0
20090128 11:45	-1.0	-1.0	-1.0	90	-2.4	0	2	270	0.00	1017.274	87	0.000	0
20090128 11:50	-0.8	-0.8	-0.8	89	-2.4	0	0	270	0.00	1017.342	91	0.000	1
20090128 11:55	-0.7	-0.7	-0.7	88	-2.5	0	5	270	0.00	1017.206	91	0.000	0
20090128 12:00	-0.7	-0.7	-0.7	88	-2.4	0	3	270	0.00	1017.274	83	0.020	0
20090128 12:05	-0.6	-0.6	-0.6	88	-2.3	2	5	270	0.00	1017.308	92	0.000	0
20090128 12:10	-0.6	-0.6	-0.6	87	-2.4	2	5	270	0.00	1017.172	134	0.000	1
20090128 12:15	-0.4	-0.4	-0.4	88	-2.2	0	2	270	0.00	1017.274	146	0.000	1
20090128 12:20	-0.3	-0.3	-0.3	87	-2.2	0	0	270	0.00	1017.037	114	0.000	1
20090128 12:25	-0.1	-0.1	-0.1	86	-2.2	0	0	270	0.00	1016.969	130	0.000	1
20090128 12:30	-0.1	-0.1	-0.1	86	-2.2	0	3	270	0.00	1016.834	110	0.000	1
20090128 12:35	-0.2	-0.2	-0.2	85	-2.4	2	3	270	0.00	1016.766	125	0.000	1
20090128 12:40	-0.3	-0.3	-0.3	86	-2.3	2	3	270	0.00	1016.935	121	0.000	1
20090128 12:45	-0.3	-0.3	-0.3	86	-2.3	0	2	270	0.00	1016.766	124	0.000	0
20090128 12:50	-0.2	-0.2	-0.2	85	-2.4	0	0	270	0.00	1016.935	129	0.000	0
20090128 12:55	-0.2	-0.2	-0.2	85	-2.4	0	2	270	0.00	1016.834	112	0.000	0
20090128 13:00	-0.1	-0.1	-0.1	84	-2.5	2	5	270	0.00	1016.766	89	0.040	0
20090128 13:05	-0.2	-0.2	-0.2	85	-2.4	0	5	270	0.00	1016.597	77	0.000	0
20090128 13:10	-0.3	-0.3	-0.3	85	-2.5	2	3	270	0.00	1016.597	69	0.000	0
20090128 13:15	-0.4	-0.4	-0.4	86	-2.4	0	3	270	0.00	1016.800	66	0.000	0
20090128 13:20	-0.6	-0.6	-0.6	86	-2.6	0	2	270	0.00	1016.834	68	0.000	0
20090128 13:25	-0.7	-0.7	-0.7	86	-2.7	2	3	270	0.00	1016.868	67	0.000	0
20090128 13:30	-0.8	-0.8	-0.8	86	-2.9	3	5	337	0.00	1016.597	78	0.000	0
20090128 13:35	-0.9	-0.9	-0.9	87	-2.8	0	3	337	0.00	1016.834	96	0.000	0
20090128 13:40	-0.9	-0.9	-0.9	87	-2.8	2	5	337	0.00	1016.868	103	0.000	0
20090128 13:45	-1.0	-1.0	-1.0	87	-2.9	2	5	337	0.00	1017.071	97	0.000	0
20090128 13:50	-0.9	-0.9	-0.9	87	-2.8	2	5	337	0.00	1017.003	86	0.000	0
20090128 13:55	-1.0	-1.0	-1.0	87	-2.9	2	5	337	0.00	1016.969	78	0.000	0
20090128 14:00	-1.0	-1.0	-1.0	87	-2.9	2	3	337	0.00	1016.868	78	0.020	0
20090128 14:05	-1.0	-1.0	-1.0	87	-2.9	0	5	337	0.00	1017.139	62	0.000	0
20090128 14:10	-1.0	-1.0	-1.0	86	-3.0	2	6	337	0.00	1017.139	62	0.000	0
20090128 14:15	-1.0	-1.0	-1.0	86	-3.0	2	5	0	0.00	1017.037	85	0.000	0
20090128 14:20	-0.9	-0.9	-0.9	86	-3.0	0	3	0	0.00	1017.139	98	0.000	0
20090128 14:25	-0.8	-0.8	-0.8	86	-2.9	0	3	0	0.00	1017.139	106	0.000	0
20090128 14:30	-0.8	-0.8	-0.8	86	-2.8	0	5	0	0.00	1017.308	100	0.000	0
20090128 14:35	-0.8	-0.8	-0.8	85	-3.0	3	6	0	0.00	1017.308	75	0.000	0
20090128 14:40	-0.8	-0.8	-0.8	85	-3.0	0	3	0	0.00	1017.342	73	0.000	0
20090128 14:45	-0.8	-0.8	-0.8	85	-3.0	2	5	0	0.00	1017.206	87	0.000	0
20090128 14:50	-0.7	-0.7	-0.7	85	-2.9	0	2	337	0.00	1017.409	78	0.000	0
20090128 14:55	-0.7	-0.7	-0.7	85	-2.9	2	5	337	0.00	1017.545	75	0.000	0
20090128 15:00	-0.8	-0.8	-0.8	85	-3.0	3	5	0	0.00	1017.579	69	0.020	0
20090128 15:05	-0.9	-0.9	-0.9	85	-3.1	2	5	0	0.00	1017.579	64	0.000	0
20090128 15:10	-0.9	-0.9	-0.9	85	-3.1	2	5	0	0.00	1017.647	63	0.000	0
20090128 15:15	-0.9	-0.9	-0.9	85	-3.1	2	5	0	0.00	1017.579	62	0.000	0
20090128 15:20	-0.9	-0.9	-0.9	86	-2.9	0	2	0	0.00	1017.647	54	0.000	0
20090128 15:25	-0.9	-0.9	-0.9	86	-3.0	3	5	0	0.00	1017.647	49	0.000	0
20090128 15:30	-1.1	-1.1	-1.1	86	-3.1	2	5	0	0.00	1017.680	48	0.000	0
20090128 15:35	-1.1	-1.1	-1.1	86	-3.1	3	5	0	0.00	1017.647	51	0.000	0
20090128 15:40	-1.2	-1.2	-1.2	87	-3.0	2	3	0	0.00	1017.782	53	0.000	0
20090128 15:45	-1.2	-1.2	-1.2	87	-3.0	2	3	0	0.00	1017.680	50	0.000	0
20090128 15:50	-1.2	-1.2	-1.2	87	-3.0	2	3	0	0.00	1017.647	46	0.000	0
20090128 15:55	-1.2	-1.2	-1.2	87	-3.0	2	3	0	0.00	1017.748	42	0.000	0
20090128 16:00	-1.2	-1.2	-1.2	88	-2.9	2	3	0	0.00	1017.782	42	0.020	0
20090128 16:05	-1.1	-1.1	-1.1	88	-2.8	2	5	0	0.00	1017.816	39	0.000	0
20090128 16:10	-1.1	-1.1	-1.1	88	-2.8	0	5	0	0.00	1017.782	34	0.000	0
20090128 16:15	-1.1	-1.1	-1.1	88	-2.8	0	2	0	0.00	1017.782	29	0.000	0
20090128 16:20	-1.2	-1.2	-1.2	88	-2.9	0	3	0	0.00	1017.680	23	0.000	0
20090128 16:25	-1.2	-1.2	-1.2	88	-2.9	0	0	0	0.00	1017.680	19	0.000	0
20090128 16:30	-1.1	-1.1	-1.1	88	-2.8	0	0	0	0.00	1017.680	15	0.000	0
20090128 16:35	-1.1	-1.1	-1.1	88	-2.8	0	2	0	0.00	1017.748	12	0.000	0
20090128 16:40	-1.2	-1.2	-1.2	88	-2.9	0	2	0	0.00	1017.884	9	0.000	0
20090128 16:45	-1.2	-1.2	-1.2	88	-3.0	0	3	0	0.00	1017.917	6	0.000	0
20090128 16:50	-1.2	-1.2	-1.2	88	-3.0	2	3	0	0.00	1017.951	4	0.000	0
20090128 16:55	-1.2	-1.2	-1.2	88	-3.0	0	3	0	0.00	1017.951	0	0.000	0
20090128 17:00	-1.2	-1.2	-1.2	88	-3.0	0	3	0	0.00	1017.985	0	0.000	0
20090128 17:05	-1.2	-1.2	-1.2	87	-3.1	2	3	0	0.00	1017.985	0	0.000	0
20090128 17:10	-1.2	-1.2	-1.2	87	-3.1	0	3	0	0.00	1018.019	0	0.000	0
20090128 17:15	-1.2	-1.2	-1.2	88	-3.0	0	2	0	0.00	1018.053	0	0.000	0
20090128 17:20	-1.2	-1.2	-1.2	88	-3.0	0	3	0	0.00	1018.019	0	0.000	0
20090128 17:25	-1.2	-1.2	-1.2	88	-3.0	2	3	0	0.00	1018.053	0	0.000	0
20090128 17:30	-1.3	-1.3	-1.3	88	-3.0	2	3	0	0.00	1018.087	0	0.000	0
20090128 17:35	-1.3	-1.3	-1.3	88	-3.0	0	3	0	0.00	1018.053	0	0.000	0
20090128 17:40	-1.3	-1.3	-1.3	88	-3.0	2	3	0	0.00	1018.053	0	0.000	0
20090128 17:45	-1.3	-1.3	-1.3	88	-3.0	2	3	0	0.00	1018.087	0	0.000	0
20090128 17:50	-1.3	-1.3	-1.3	88	-3.0	0	3	0	0.00	1018.053	0	0.000	0
20090128 17:55	-1.3	-1.3	-1.3	88	-3.1	2	3	0	0.00	1018.121	0	0.000	0
20090128 18:00	-1.3	-1.3	-1.3	88	-3.1	2	5	0	0.00	1018.188	0	0.000	0
20090128 18:05	-1.3	-1.3	-1.3	88	-3.1	2	5	0	0.00	1018.087	0	0.000	0
20090128 18:10	-1.3	-1.3	-1.3	88	-3.1	0	3	0	0.00	1018.121	0	0.000	0
20090128 18:15	-1.3	-1.3	-1.3	88	-3.1	2	3	0	0.00	1018.154	0	0.000	0
20090128 18:20	-1.3	-1.3	-1.3	88	-3.1	2	5	0	0.00	1018.121	0	0.000	0
20090128 18:25	-1.3	-1.3	-1.3	88	-3.1	0	5	0	0.00	1018.222	0	0.000	0
20090128 18:30	-1.3	-1.3	-1.3	88	-3.1	2	5	0	0.00	1018.256	0	0.000	0
20090128 18:35	-1.3	-1.3	-1.3	88	-3.1	2	3	0	0.00	1018.392	0	0.000	0
20090128 18:40	-1.3	-1.3	-1.3	88	-3.1	0	3	0	0.00	1018.493	0	0.000	0
20090128 18:45	-1.3	-1.3	-1.3	88	-3.1	0	3	0	0.00	1018.493	0	0.000	0
20090128 18:50	-1.4	-1.4	-1.4	88	-3.1	0	3	0	0.00	1018.459	0	0.000	0
20090128 18:55	-1.4	-1.4	-1.4	88	-3.1	0	3	0	0.00	1018.425	0	0.000	0
20090128 19:00	-1.4	-1.4	-1.4	88	-3.1	0	3	0	0.00	1018.527	0	0.000	0
20090128 19:05	-1.4	-1.4	-1.4	88	-3.1	0	3	0	0.00	1018.764	0	0.000	0
20090128 19:10	-1.4	-1.4	-1.4	88	-3.1	0	2	0	0.00	1018.832	0	0.000	0
20090128 19:15	-1.4	-1.4	-1.4	88	-3.1	0	2	0	0.00	1018.933	0	0.000	0
20090128 19:20	-1.4	-1.4	-1.4	88	-3.1	0	0	0	0.00	1018.933	0	0.000	0
20090128 19:25	-1.3	-1.3	-1.3	88	-3.1	0	0	0	0.00	1018.933	0	0.000	0
20090128 19:30	-1.3	-1.3	-1.3	88	-3.1	0	0	0	0.00	1018.967	0	0.000	0
20090128 19:35	-1.3	-1.3	-1.3	88	-3.1	0	0	0	0.00	1018.933	0	0.000	0
20090128 19:40	-1.3	-1.3	-1.3	88	-3.1	0	0	0	0.00	1019.069	0	0.000	0
20090128 19:45	-1.3	-1.3	-1.3	88	-3.1	0	0	0	0.00	1019.001	0	0.000	0
20090128 19:50	-1.3	-1.3	-1.3	88	-3.1	0	0	0	0.00	1018.967	0	0.000	0
20090128 19:55	-1.3	-1.3	-1.3	88	-3.0	0	0	0	0.00	1018.933	0	0.000	0
20090128 20:00	-1.2	-1.2	-1.2	88	-3.0	0	0	0	0.00	1018.967	0	0.000	0
20090128 20:05	-1.2	-1.2	-1.2	87	-3.0	0	0	0	0.00	1018.764	0	0.000	0
20090128 20:10	-1.1	-1.1	-1.1	87	-2.9	0	0	0	0.00	1018.764	0	0.000	0
20090128 20:15	-1.1	-1.1	-1.1	86	-3.1	0	0	0	0.00	1018.730	0	0.000	0
20090128 20:20	-1.1	-1.1	-1.1	86	-3.1	0	0	0	0.00	1018.696	0	0.000	0
20090128 20:25	-1.1	-1.1	-1.1	86	-3.1	0	0	0	0.00	1018.696	0	0.000	0
20090128 20:30	-1.1	-1.1	-1.1	86	-3.1	0	0	0	0.00	1018.696	0	0.000	0
20090128 20:35	-1.1	-1.1	-1.1	86	-3.1	0	0	0	0.00	1018.629	0	0.000	0
20090128 20:40	-1.1	-1.1	-1.1	86	-3.1	0	0	0	0.00	1018.595	0	0.000	0
20090128 20:45	-1.1	-1.1	-1.1	86	-3.1	0	0	0	0.00	1018.696	0	0.000	0
20090128 20:50	-1.1	-1.1	-1.1	86	-3.1	0	0	0	0.00	1018.696	0	0.000	0
20090128 20:55	-1.1	-1.1	-1.1	86	-3.1	0	0	0	0.00	1018.696	0	0.000	0
20090128 21:00	-1.1	-1.1	-1.1	86	-3.1	0	0	0	0.00	1018.798	0	0.000	0
20090128 21:05	-1.2	-1.2	-1.2	86	-3.2	0	2	0	0.00	1018.798	0	0.000	0
20090128 21:10	-1.2	-1.2	-1.2	86	-3.3	0	0	0	0.00	1018.798	0	0.000	0
20090128 21:15	-1.2	-1.2	-1.2	86	-3.3	0	2	0	0.00	1018.798	0	0.000	0
20090128 21:20	-1.3	-1.3	-1.3	86	-3.3	0	2	0	0.00	1018.764	0	0.000	0
20090128 21:25	-1.3	-1.3	-1.3	87	-3.2	0	0	0	0.00	1018.730	0	0.000	0
20090128 21:30	-1.3	-1.3	-1.3	87	-3.2	0	0	0	0.00	1018.730	0	0.000	0
20090128 21:35	-1.3	-1.3	-1.3	87	-3.2	0	0	0	0.00	1018.629	0	0.000	0
20090128 21:40	-1.3	-1.3	-1.3	87	-3.2	0	0	0	0.00	1018.662	0	0.000	0
20090128 21:45	-1.3	-1.3	-1.3	87	-3.2	0	0	0	0.00	1018.662	0	0.000	0
20090128 21:50	-1.3	-1.3	-1.3	87	-3.2	0	0	0	0.00	1018.561	0	0.000	0
20090128 21:55	-1.3	-1.3	-1.3	87	-3.2	0	0	0	0.00	1018.561	0	0.000	0
20090128 22:00	-1.3	-1.3	-1.3	87	-3.2	0	3	0	0.00	1018.527	0	0.000	0
20090128 22:05	-1.4	-1.4	-1.4	87	-3.3	2	3	0	0.00	1018.527	0	0.000	0
20090128 22:10	-1.4	-1.4	-1.4	87	-3.3	0	0	0	0.00	1018.425	0	0.000	0
20090128 22:15	-1.4	-1.4	-1.4	87	-3.3	0	2	0	0.00	1018.527	0	0.000	0
20090128 22:20	-1.4	-1.4	-1.4	88	-3.2	0	0	0	0.00	1018.561	0	0.000	0
20090128 22:25	-1.5	-1.5	-1.5	88	-3.2	2	3	0	0.00	1018.561	0	0.000	0
20090128 22:30	-1.5	-1.5	-1.5	88	-3.2	0	3	0	0.00	1018.527	0	0.000	0
20090128 22:35	-1.6	-1.6	-1.6	88	-3.3	0	3	0	0.00	1018.561	0	0.000	0
20090128 22:40	-1.6	-1.6	-1.6	88	-3.3	2	3	0	0.00	1018.561	0	0.000	0
20090128 22:45	-1.6	-1.6	-1.6	88	-3.3	0	3	0	0.00	1018.561	0	0.000	0
20090128 22:50	-1.6	-1.6	-1.6	88	-3.3	2	3	0	0.00	1018.629	0	0.000	0
20090128 22:55	-1.6	-1.6	-1.6	88	-3.3	2	3	0	0.00	1018.662	0	0.000	0
20090128 23:00	-1.6	-1.6	-1.6	88	-3.3	2	3	0	0.00	1018.595	0	0.000	0
20090128 23:05	-1.6	-1.6	-1.6	88	-3.3	2	3	0	0.00	1018.459	0	0.000	0
20090128 23:10	-1.6	-1.6	-1.6	88	-3.3	0	3	0	0.00	1018.493	0	0.000	0
20090128 23:15	-1.6	-1.6	-1.6	88	-3.3	2	3	0	0.00	1018.527	0	0.000	0
20090128 23:20	-1.6	-1.6	-1.6	88	-3.3	0	2	0	0.00	1018.459	0	0.000	0
20090128 23:25	-1.6	-1.6	-1.6	88	-3.3	0	2	0	0.00	1018.459	0	0.000	0
20090128 23:30	-1.6	-1.6	-1.6	88	-3.3	0	2	0	0.00	1018.527	0	0.000	0
20090128 23:35	-1.6	-1.6	-1.6	88	-3.3	0	3	0	0.00	1018.493	0	0.000	0
20090128 23:40	-1.6	-1.6	-1.6	88	-3.3	0	0	0	0.00	1018.561	0	0.000	0
20090128 23:45	-1.6	-1.6	-1.6	89	-3.2	0	0	0	0.00	1018.459	0	0.000	0
20090128 23:50	-1.6	-1.6	-1.6	89	-3.2	0	0	0	0.00	1018.425	0	0.000	0
20090128 23:55	-1.6	-1.6	-1.6	89	-3.2	0	2	0	0.00	1018.459	0	0.000	0
20090128 24:00	-1.7	-1.7	-1.7	89	-3.2	0	0	0	0.00	1018.459	0	0.000	0



Please note the license to use and transfer of this data:
http://creativecommons.org/licenses/by-nc-sa/3.0/deed.en

Bitte beachten sie die Lizenz zur Verwertung und Weitergabe der Daten:
http://creativecommons.org/licenses/by-nc-sa/3.0/deed.de

zurück zur Übersicht der Archivdaten (Monats und Tagesdaten)

Cookies helfen bei der Bereitstellung von Inhalten. Durch die Nutzung dieser Seiten erklärst du dich damit einverstanden, dass Cookies auf deinem Rechner gespeichert werden. Weitere Information